Kennedale's Hourly Summary for Friday, July 6, 2018
Hour Temp
(f)
RH
(%)
Solar Rad.
(MJ/m2)
Rainfall
(in)
Wind
(mph)
7/6/2018 12:00 AM 84 63 0 0 3.28
7/6/2018 1:00 AM 83 65 0 0 1.73
7/6/2018 2:00 AM 82 67 0 0 1.23
7/6/2018 3:00 AM 80 72 0 0 1.06
7/6/2018 4:00 AM 78 77 0 0 1.63
7/6/2018 5:00 AM 78 80 0 0 2.24
7/6/2018 6:00 AM 77 82 0.01 0 1.68
7/6/2018 7:00 AM 80 77 0.25 0 2.07
7/6/2018 8:00 AM 83 72 0.76 0 4.36
7/6/2018 9:00 AM 85 63 1.36 0 4.3
7/6/2018 10:00 AM 87 59 1.22 0 3.52
7/6/2018 11:00 AM 89 52 1.8 0 4.87
7/6/2018 12:00 PM 92 45 2.1 0 5.65
7/6/2018 1:00 PM 92 42 1.86 0 6.04
7/6/2018 2:00 PM 95 37 2.75 0 5.93
7/6/2018 3:00 PM 91 48 1.01 0 6.15
7/6/2018 4:00 PM 86 57 0.85 0 6.71
7/6/2018 5:00 PM 81 68 0.27 0 5.14
7/6/2018 6:00 PM 81 65 0.36 0 2.52
7/6/2018 7:00 PM 83 62 0.36 0 3.41
7/6/2018 8:00 PM 82 65 0.06 0 2.18
7/6/2018 9:00 PM 81 70 0 0 1.46
7/6/2018 10:00 PM 82 63 0 0 4.3
7/6/2018 11:00 PM 81 67 0 0 1.9
Data Summary 83 63 15.02 0.00 3.47